RYR2CM LICJ-EPPO
Flight info
| Callsign | RYR2CM |
|---|---|
| Flight time | 2h 17m |
| Altitude | 36000 |
| Route | LURON DCT DORAS DCT BEROL DCT ENSOT DCT PNZ DCT NEKPI DCT IBENI/N0448F370 DCT ALIVO DCT NAVTI DCT DESEN/N0450F380 DCT ARMEX DCT NILPU |
| Aircraft | B38M/M-SDE1FGHILORVWXY/HB1 |
Departure
| Time | 2026-04-26 17:07 |
|---|---|
| Airport | Falcone–Borsellino Airport (LICJ) |
Arrival
| Time | 2026-04-26 19:25 |
|---|---|
| Airport | Poznań-Ławica Airport (EPPO) |
| Time | Latitude | Longitude | Altitude | Speed | Heading |
|---|---|---|---|---|---|
| 2026-04-26 16:47 | 38.18487 | 13.10471 | 67 ft | 0 kts | 337° |
| 2026-04-26 16:53 | 38.18486 | 13.10471 | 67 ft | 1 kts | 337° |
| 2026-04-26 16:53 | 38.18472 | 13.10479 | 59 ft | 2 kts | 337° |
| 2026-04-26 16:53 | 38.18456 | 13.10487 | 60 ft | 2 kts | 338° |
| 2026-04-26 16:54 | 38.18443 | 13.10498 | 58 ft | 2 kts | 299° |
| 2026-04-26 16:54 | 38.18440 | 13.10518 | 64 ft | 2 kts | 259° |
| 2026-04-26 16:54 | 38.18445 | 13.10538 | 60 ft | 2 kts | 247° |
| 2026-04-26 16:54 | 38.18451 | 13.10557 | 61 ft | 2 kts | 245° |
| 2026-04-26 16:55 | 38.18458 | 13.10575 | 62 ft | 1 kts | 246° |
| 2026-04-26 16:55 | 38.18460 | 13.10580 | 63 ft | 0 kts | 246° |
| 2026-04-26 16:56 | 38.18458 | 13.10577 | 62 ft | 0 kts | 246° |
| 2026-04-26 16:57 | 38.18457 | 13.10572 | 61 ft | 2 kts | 246° |
| 2026-04-26 16:58 | 38.18449 | 13.10550 | 65 ft | 4 kts | 246° |
| 2026-04-26 16:58 | 38.18437 | 13.10529 | 66 ft | 5 kts | 223° |
| 2026-04-26 16:58 | 38.18331 | 13.10467 | 61 ft | 9 kts | 223° |
| 2026-04-26 16:59 | 38.18302 | 13.10390 | 62 ft | 10 kts | 245° |
| 2026-04-26 16:59 | 38.18281 | 13.10330 | 65 ft | 12 kts | 246° |
| 2026-04-26 17:00 | 38.18212 | 13.10126 | 66 ft | 15 kts | 248° |
| 2026-04-26 17:00 | 38.18143 | 13.09919 | 65 ft | 9 kts | 247° |
| 2026-04-26 17:00 | 38.18099 | 13.09865 | 63 ft | 10 kts | 182° |
| 2026-04-26 17:01 | 38.18039 | 13.09851 | 62 ft | 10 kts | 246° |
| 2026-04-26 17:01 | 38.18011 | 13.09763 | 61 ft | 12 kts | 246° |
| 2026-04-26 17:01 | 38.17977 | 13.09661 | 61 ft | 13 kts | 246° |
| 2026-04-26 17:01 | 38.17939 | 13.09548 | 65 ft | 15 kts | 248° |
| 2026-04-26 17:02 | 38.17897 | 13.09424 | 63 ft | 16 kts | 248° |
| 2026-04-26 17:02 | 38.17857 | 13.09304 | 71 ft | 13 kts | 247° |
| 2026-04-26 17:02 | 38.17819 | 13.09192 | 70 ft | 15 kts | 247° |
| 2026-04-26 17:02 | 38.17770 | 13.09043 | 66 ft | 20 kts | 246° |
| 2026-04-26 17:03 | 38.17719 | 13.08936 | 64 ft | 13 kts | 221° |
| 2026-04-26 17:03 | 38.17654 | 13.08873 | 67 ft | 0 kts | 217° |
| 2026-04-26 17:03 | 38.17648 | 13.08867 | 69 ft | 2 kts | 217° |
| 2026-04-26 17:03 | 38.17632 | 13.08851 | 65 ft | 4 kts | 216° |
| 2026-04-26 17:04 | 38.17605 | 13.08826 | 65 ft | 6 kts | 216° |
| 2026-04-26 17:04 | 38.17570 | 13.08793 | 63 ft | 7 kts | 217° |
| 2026-04-26 17:04 | 38.17529 | 13.08756 | 65 ft | 7 kts | 206° |
| 2026-04-26 17:04 | 38.17493 | 13.08775 | 67 ft | 6 kts | 122° |
| 2026-04-26 17:05 | 38.17492 | 13.08827 | 72 ft | 7 kts | 72° |
| 2026-04-26 17:05 | 38.17494 | 13.08836 | 72 ft | 0 kts | 70° |
| 2026-04-26 17:05 | 38.17495 | 13.08839 | 72 ft | 1 kts | 70° |
| 2026-04-26 17:05 | 38.17504 | 13.08865 | 63 ft | 8 kts | 67° |
| 2026-04-26 17:06 | 38.17608 | 13.09180 | 69 ft | 74 kts | 66° |
| 2026-04-26 17:06 | 38.17654 | 13.09313 | 69 ft | 88 kts | 67° |
| 2026-04-26 17:07 | 38.17957 | 13.10229 | 65 ft | 145 kts | 68° |
| 2026-04-26 17:07 | 38.18383 | 13.11555 | 318 ft | 174 kts | 68° |
| 2026-04-26 17:07 | 38.18861 | 13.13002 | 1060 ft | 180 kts | 67° |
| 2026-04-26 17:07 | 38.19354 | 13.14488 | 1828 ft | 185 kts | 68° |
| 2026-04-26 17:08 | 38.19884 | 13.16071 | 2301 ft | 203 kts | 67° |
| 2026-04-26 17:08 | 38.20460 | 13.17782 | 2857 ft | 219 kts | 66° |
| 2026-04-26 17:08 | 38.21318 | 13.19471 | 3401 ft | 239 kts | 47° |
| 2026-04-26 17:08 | 38.22687 | 13.20792 | 3970 ft | 257 kts | 29° |
| 2026-04-26 17:09 | 38.24380 | 13.21706 | 4657 ft | 266 kts | 21° |
| 2026-04-26 17:09 | 38.25518 | 13.22226 | 5448 ft | 260 kts | 21° |
| 2026-04-26 17:09 | 38.27810 | 13.23335 | 6604 ft | 268 kts | 22° |
| 2026-04-26 17:09 | 38.29544 | 13.24215 | 7449 ft | 270 kts | 23° |
| 2026-04-26 17:10 | 38.31298 | 13.25122 | 8234 ft | 275 kts | 22° |
| 2026-04-26 17:10 | 38.33074 | 13.26053 | 9073 ft | 278 kts | 22° |
| 2026-04-26 17:10 | 38.34866 | 13.27002 | 9910 ft | 281 kts | 22° |
| 2026-04-26 17:10 | 38.36694 | 13.27974 | 10540 ft | 291 kts | 22° |
| 2026-04-26 17:11 | 38.38623 | 13.29000 | 10886 ft | 310 kts | 23° |
| 2026-04-26 17:11 | 38.40715 | 13.29900 | 11253 ft | 327 kts | 8° |
| 2026-04-26 17:11 | 38.42978 | 13.29743 | 12050 ft | 327 kts | 346° |
| 2026-04-26 17:11 | 38.45167 | 13.28885 | 12750 ft | 333 kts | 343° |
| 2026-04-26 17:12 | 38.49639 | 13.27042 | 14174 ft | 342 kts | 342° |
| 2026-04-26 17:12 | 38.51913 | 13.26086 | 14831 ft | 345 kts | 342° |
| 2026-04-26 17:13 | 38.56513 | 13.24134 | 16151 ft | 352 kts | 342° |
| 2026-04-26 17:13 | 38.58847 | 13.23141 | 16805 ft | 355 kts | 342° |
| 2026-04-26 17:13 | 38.63585 | 13.21121 | 18042 ft | 363 kts | 342° |
| 2026-04-26 17:14 | 38.65985 | 13.20097 | 18634 ft | 365 kts | 342° |
| 2026-04-26 17:14 | 38.70852 | 13.18019 | 19664 ft | 372 kts | 342° |
| 2026-04-26 17:14 | 38.73285 | 13.16979 | 20166 ft | 375 kts | 342° |
| 2026-04-26 17:15 | 38.78277 | 13.14841 | 21167 ft | 381 kts | 342° |
| 2026-04-26 17:15 | 38.80807 | 13.13758 | 21664 ft | 385 kts | 342° |
| 2026-04-26 17:15 | 38.83355 | 13.12665 | 22148 ft | 388 kts | 343° |
| 2026-04-26 17:16 | 38.85943 | 13.11644 | 22609 ft | 391 kts | 350° |
| 2026-04-26 17:16 | 38.88651 | 13.11387 | 23168 ft | 389 kts | 0° |
| 2026-04-26 17:16 | 38.91371 | 13.11203 | 23614 ft | 395 kts | 358° |
| 2026-04-26 17:16 | 38.94132 | 13.10978 | 23991 ft | 399 kts | 358° |
| 2026-04-26 17:17 | 38.96903 | 13.10763 | 24463 ft | 400 kts | 358° |
| 2026-04-26 17:17 | 38.99696 | 13.10552 | 24852 ft | 403 kts | 358° |
| 2026-04-26 17:17 | 39.02506 | 13.10340 | 25287 ft | 405 kts | 358° |
| 2026-04-26 17:17 | 39.05331 | 13.10128 | 25690 ft | 408 kts | 358° |
| 2026-04-26 17:18 | 39.08174 | 13.09915 | 26104 ft | 410 kts | 358° |
| 2026-04-26 17:18 | 39.11031 | 13.09700 | 26529 ft | 412 kts | 358° |
| 2026-04-26 17:18 | 39.13904 | 13.09484 | 26913 ft | 415 kts | 358° |
| 2026-04-26 17:18 | 39.16793 | 13.09266 | 27302 ft | 417 kts | 358° |
| 2026-04-26 17:19 | 39.22622 | 13.08827 | 28068 ft | 422 kts | 358° |
| 2026-04-26 17:19 | 39.25559 | 13.08605 | 28439 ft | 424 kts | 358° |
| 2026-04-26 17:19 | 39.28515 | 13.08382 | 28805 ft | 426 kts | 358° |
| 2026-04-26 17:20 | 39.31483 | 13.08155 | 29167 ft | 428 kts | 358° |
| 2026-04-26 17:20 | 39.32491 | 13.08080 | 29294 ft | 429 kts | 358° |
| 2026-04-26 17:20 | 39.37463 | 13.07705 | 29892 ft | 433 kts | 358° |
| 2026-04-26 17:20 | 39.40475 | 13.07477 | 30212 ft | 435 kts | 358° |
| 2026-04-26 17:21 | 39.43505 | 13.07247 | 30502 ft | 437 kts | 358° |
| 2026-04-26 17:21 | 39.46546 | 13.07016 | 30792 ft | 439 kts | 358° |
| 2026-04-26 17:21 | 39.49599 | 13.06784 | 31067 ft | 441 kts | 358° |
| 2026-04-26 17:21 | 39.52668 | 13.06550 | 31350 ft | 443 kts | 358° |
| 2026-04-26 17:22 | 39.55749 | 13.06316 | 31627 ft | 445 kts | 358° |
| 2026-04-26 17:22 | 39.58802 | 13.06083 | 31904 ft | 446 kts | 357° |
| 2026-04-26 17:22 | 39.61954 | 13.05841 | 32177 ft | 448 kts | 357° |
| 2026-04-26 17:22 | 39.65074 | 13.05601 | 32444 ft | 450 kts | 357° |
| 2026-04-26 17:23 | 39.68162 | 13.05363 | 32713 ft | 452 kts | 357° |
| 2026-04-26 17:23 | 39.71303 | 13.05122 | 33070 ft | 451 kts | 357° |
| 2026-04-26 17:23 | 39.74428 | 13.04881 | 33436 ft | 450 kts | 358° |
| 2026-04-26 17:23 | 39.77558 | 13.04639 | 33802 ft | 450 kts | 358° |
| 2026-04-26 17:24 | 39.80681 | 13.04398 | 34161 ft | 449 kts | 357° |
| 2026-04-26 17:24 | 39.83796 | 13.04158 | 34461 ft | 448 kts | 357° |
| 2026-04-26 17:24 | 39.86905 | 13.03917 | 34768 ft | 447 kts | 357° |
| 2026-04-26 17:24 | 39.90008 | 13.03676 | 35045 ft | 447 kts | 357° |
| 2026-04-26 17:25 | 39.96317 | 13.03188 | 35149 ft | 457 kts | 357° |
| 2026-04-26 17:25 | 39.99483 | 13.02942 | 35487 ft | 456 kts | 357° |
| 2026-04-26 17:25 | 40.02652 | 13.02696 | 35700 ft | 456 kts | 357° |
| 2026-04-26 17:26 | 40.04750 | 13.02533 | 35908 ft | 455 kts | 357° |
| 2026-04-26 17:26 | 40.07905 | 13.02286 | 36142 ft | 455 kts | 357° |
| 2026-04-26 17:26 | 40.14219 | 13.01795 | 36150 ft | 453 kts | 357° |
| 2026-04-26 17:27 | 40.20508 | 13.01305 | 36151 ft | 454 kts | 357° |
| 2026-04-26 17:27 | 40.26808 | 13.00816 | 36144 ft | 453 kts | 356° |
| 2026-04-26 17:28 | 40.33106 | 13.00328 | 36146 ft | 453 kts | 356° |
| 2026-04-26 17:28 | 40.39397 | 12.99838 | 36148 ft | 453 kts | 356° |
| 2026-04-26 17:29 | 40.44632 | 12.99430 | 36140 ft | 453 kts | 356° |
| 2026-04-26 17:29 | 40.51995 | 12.98856 | 36143 ft | 453 kts | 356° |
| 2026-04-26 17:30 | 40.58292 | 12.98355 | 36147 ft | 454 kts | 356° |
| 2026-04-26 17:30 | 40.64584 | 12.97855 | 36142 ft | 453 kts | 356° |
| 2026-04-26 17:31 | 40.70883 | 12.97353 | 36140 ft | 453 kts | 356° |
| 2026-04-26 17:31 | 40.77181 | 12.96850 | 36143 ft | 454 kts | 356° |
| 2026-04-26 17:32 | 40.83481 | 12.96346 | 36137 ft | 453 kts | 356° |
| 2026-04-26 17:32 | 40.89777 | 12.95857 | 36138 ft | 453 kts | 359° |
| 2026-04-26 17:33 | 40.92901 | 12.96256 | 36088 ft | 451 kts | 14° |
| 2026-04-26 17:33 | 40.95892 | 12.97267 | 36184 ft | 452 kts | 11° |
| 2026-04-26 17:34 | 41.05176 | 12.99899 | 36141 ft | 454 kts | 12° |
| 2026-04-26 17:34 | 41.11301 | 13.01721 | 36142 ft | 454 kts | 12° |
| 2026-04-26 17:35 | 41.17508 | 13.03579 | 36135 ft | 454 kts | 12° |
| 2026-04-26 17:35 | 41.23672 | 13.05427 | 36135 ft | 454 kts | 12° |
| 2026-04-26 17:36 | 41.29792 | 13.07266 | 36130 ft | 454 kts | 12° |
| 2026-04-26 17:36 | 41.35958 | 13.09115 | 36131 ft | 454 kts | 12° |
| 2026-04-26 17:37 | 41.42123 | 13.10962 | 36131 ft | 454 kts | 12° |
| 2026-04-26 17:37 | 41.48288 | 13.12815 | 36138 ft | 454 kts | 12° |
| 2026-04-26 17:38 | 41.57533 | 13.15600 | 36132 ft | 454 kts | 12° |
| 2026-04-26 17:38 | 41.63699 | 13.17461 | 36134 ft | 454 kts | 12° |
| 2026-04-26 17:39 | 41.69863 | 13.19325 | 36140 ft | 454 kts | 12° |
| 2026-04-26 17:39 | 41.76025 | 13.21193 | 36133 ft | 454 kts | 12° |
| 2026-04-26 17:40 | 41.81144 | 13.22747 | 36138 ft | 454 kts | 12° |
| 2026-04-26 17:40 | 41.88348 | 13.24938 | 36137 ft | 454 kts | 12° |
| 2026-04-26 17:41 | 41.94517 | 13.26819 | 36143 ft | 455 kts | 12° |
| 2026-04-26 17:41 | 42.00686 | 13.28704 | 36142 ft | 455 kts | 11° |
| 2026-04-26 17:42 | 42.06857 | 13.30592 | 36145 ft | 455 kts | 11° |
| 2026-04-26 17:42 | 42.13027 | 13.32485 | 36142 ft | 455 kts | 11° |
| 2026-04-26 17:43 | 42.19194 | 13.34380 | 36144 ft | 455 kts | 11° |
| 2026-04-26 17:43 | 42.25369 | 13.36282 | 36145 ft | 455 kts | 11° |
| 2026-04-26 17:44 | 42.31537 | 13.38186 | 36140 ft | 455 kts | 10° |
| 2026-04-26 17:44 | 42.37660 | 13.40079 | 36140 ft | 455 kts | 10° |
| 2026-04-26 17:45 | 42.43829 | 13.41990 | 36140 ft | 455 kts | 10° |
| 2026-04-26 17:45 | 42.50008 | 13.43908 | 36143 ft | 456 kts | 10° |
| 2026-04-26 17:46 | 42.54533 | 13.45315 | 36135 ft | 456 kts | 10° |
| 2026-04-26 17:46 | 42.60721 | 13.47243 | 36144 ft | 457 kts | 10° |
| 2026-04-26 17:47 | 42.65868 | 13.48849 | 36137 ft | 457 kts | 10° |
| 2026-04-26 17:47 | 42.73106 | 13.51113 | 36138 ft | 456 kts | 11° |
| 2026-04-26 17:48 | 42.79286 | 13.53050 | 36121 ft | 455 kts | 11° |
| 2026-04-26 17:48 | 42.85464 | 13.54989 | 36120 ft | 456 kts | 11° |
| 2026-04-26 17:49 | 42.91617 | 13.56926 | 36117 ft | 457 kts | 11° |
| 2026-04-26 17:49 | 42.97810 | 13.58879 | 36130 ft | 457 kts | 11° |
| 2026-04-26 17:50 | 43.04006 | 13.60837 | 36119 ft | 457 kts | 11° |
| 2026-04-26 17:50 | 43.10208 | 13.62801 | 36112 ft | 458 kts | 11° |
| 2026-04-26 17:51 | 43.16416 | 13.64771 | 36108 ft | 458 kts | 11° |
| 2026-04-26 17:51 | 43.22621 | 13.66744 | 36112 ft | 458 kts | 10° |
| 2026-04-26 17:52 | 43.28832 | 13.68724 | 36097 ft | 458 kts | 10° |
| 2026-04-26 17:52 | 43.35044 | 13.70707 | 36098 ft | 458 kts | 11° |
| 2026-04-26 17:53 | 43.41256 | 13.72695 | 36113 ft | 458 kts | 10° |
| 2026-04-26 17:54 | 43.50575 | 13.75685 | 36103 ft | 459 kts | 11° |
| 2026-04-26 17:54 | 43.56789 | 13.77684 | 36103 ft | 459 kts | 11° |
| 2026-04-26 17:55 | 43.63004 | 13.79688 | 36096 ft | 458 kts | 10° |
| 2026-04-26 17:55 | 43.69216 | 13.81694 | 36086 ft | 458 kts | 11° |
| 2026-04-26 17:56 | 43.75426 | 13.83705 | 36096 ft | 458 kts | 10° |
| 2026-04-26 17:57 | 43.87802 | 13.87723 | 36101 ft | 458 kts | 11° |
| 2026-04-26 17:57 | 43.92028 | 13.89099 | 36100 ft | 458 kts | 11° |
| 2026-04-26 17:58 | 44.04218 | 13.93656 | 37083 ft | 451 kts | 19° |
| 2026-04-26 17:59 | 44.13106 | 13.98340 | 37098 ft | 461 kts | 18° |
| 2026-04-26 17:59 | 44.19108 | 14.01517 | 37080 ft | 461 kts | 18° |
| 2026-04-26 18:00 | 44.25101 | 14.04696 | 37091 ft | 461 kts | 18° |
| 2026-04-26 18:00 | 44.31103 | 14.07888 | 37090 ft | 461 kts | 18° |
| 2026-04-26 18:01 | 44.37100 | 14.11084 | 37085 ft | 461 kts | 18° |
| 2026-04-26 18:01 | 44.43097 | 14.14288 | 37084 ft | 462 kts | 18° |
| 2026-04-26 18:02 | 44.47112 | 14.16436 | 37085 ft | 461 kts | 18° |
| 2026-04-26 18:02 | 44.55094 | 14.20717 | 37080 ft | 461 kts | 18° |
| 2026-04-26 18:03 | 44.61088 | 14.23940 | 37078 ft | 461 kts | 18° |
| 2026-04-26 18:03 | 44.67085 | 14.27171 | 37074 ft | 462 kts | 18° |
| 2026-04-26 18:04 | 44.73079 | 14.30409 | 37074 ft | 461 kts | 18° |
| 2026-04-26 18:05 | 44.82069 | 14.35277 | 37076 ft | 462 kts | 18° |
| 2026-04-26 18:05 | 44.88063 | 14.38533 | 37077 ft | 461 kts | 18° |
| 2026-04-26 18:06 | 44.94058 | 14.41796 | 37067 ft | 462 kts | 18° |
| 2026-04-26 18:06 | 45.00051 | 14.45065 | 37086 ft | 462 kts | 18° |
| 2026-04-26 18:07 | 45.06001 | 14.48318 | 37111 ft | 462 kts | 18° |
| 2026-04-26 18:07 | 45.11995 | 14.51603 | 37104 ft | 462 kts | 18° |
| 2026-04-26 18:08 | 45.17992 | 14.54897 | 37105 ft | 462 kts | 18° |
| 2026-04-26 18:08 | 45.23987 | 14.58197 | 37109 ft | 462 kts | 18° |
| 2026-04-26 18:09 | 45.29986 | 14.61507 | 37107 ft | 462 kts | 18° |
| 2026-04-26 18:09 | 45.35982 | 14.64823 | 37097 ft | 463 kts | 18° |
| 2026-04-26 18:10 | 45.41977 | 14.68144 | 37099 ft | 463 kts | 18° |
| 2026-04-26 18:10 | 45.47976 | 14.71475 | 37105 ft | 463 kts | 18° |
| 2026-04-26 18:11 | 45.54016 | 14.74558 | 37105 ft | 459 kts | 11° |
| 2026-04-26 18:11 | 45.60178 | 14.77030 | 37083 ft | 460 kts | 13° |
| 2026-04-26 18:12 | 45.66310 | 14.79635 | 37124 ft | 460 kts | 13° |
| 2026-04-26 18:12 | 45.71401 | 14.81809 | 37118 ft | 459 kts | 13° |
| 2026-04-26 18:13 | 45.77525 | 14.84430 | 37124 ft | 459 kts | 13° |
| 2026-04-26 18:13 | 45.83655 | 14.87060 | 37126 ft | 460 kts | 13° |
| 2026-04-26 18:14 | 45.90780 | 14.90124 | 37130 ft | 460 kts | 13° |
| 2026-04-26 18:14 | 45.95918 | 14.92339 | 37132 ft | 460 kts | 13° |
| 2026-04-26 18:15 | 46.02043 | 14.94984 | 37131 ft | 460 kts | 13° |
| 2026-04-26 18:15 | 46.08172 | 14.97638 | 37138 ft | 460 kts | 13° |
| 2026-04-26 18:16 | 46.14294 | 15.00295 | 37137 ft | 460 kts | 13° |
| 2026-04-26 18:16 | 46.23480 | 15.04293 | 37161 ft | 459 kts | 13° |
| 2026-04-26 18:17 | 46.29596 | 15.06963 | 37158 ft | 459 kts | 13° |
| 2026-04-26 18:17 | 46.35715 | 15.09640 | 37163 ft | 459 kts | 13° |
| 2026-04-26 18:18 | 46.41792 | 15.12304 | 37187 ft | 459 kts | 13° |
| 2026-04-26 18:18 | 46.47896 | 15.14988 | 37182 ft | 459 kts | 13° |
| 2026-04-26 18:19 | 46.54001 | 15.17678 | 37179 ft | 458 kts | 13° |
| 2026-04-26 18:19 | 46.60105 | 15.20372 | 37205 ft | 459 kts | 13° |
| 2026-04-26 18:20 | 46.66197 | 15.23071 | 37195 ft | 457 kts | 13° |
| 2026-04-26 18:20 | 46.71259 | 15.25317 | 37194 ft | 458 kts | 13° |
| 2026-04-26 18:21 | 46.78377 | 15.28482 | 37221 ft | 458 kts | 13° |
| 2026-04-26 18:21 | 46.84454 | 15.31197 | 37204 ft | 456 kts | 14° |
| 2026-04-26 18:22 | 46.90329 | 15.34823 | 37201 ft | 460 kts | 19° |
| 2026-04-26 18:22 | 46.96223 | 15.38388 | 37223 ft | 459 kts | 18° |
| 2026-04-26 18:23 | 47.02129 | 15.41942 | 37204 ft | 457 kts | 18° |
| 2026-04-26 18:23 | 47.08015 | 15.45491 | 37212 ft | 458 kts | 18° |
| 2026-04-26 18:24 | 47.13903 | 15.49049 | 37210 ft | 457 kts | 18° |
| 2026-04-26 18:24 | 47.19790 | 15.52616 | 37218 ft | 458 kts | 18° |
| 2026-04-26 18:25 | 47.25676 | 15.56191 | 37210 ft | 458 kts | 18° |
| 2026-04-26 18:25 | 47.31564 | 15.59774 | 37215 ft | 458 kts | 18° |
| 2026-04-26 18:26 | 47.37455 | 15.63370 | 37217 ft | 458 kts | 18° |
| 2026-04-26 18:26 | 47.43335 | 15.66967 | 37221 ft | 457 kts | 18° |
| 2026-04-26 18:27 | 47.49209 | 15.70568 | 37213 ft | 457 kts | 18° |
| 2026-04-26 18:27 | 47.55082 | 15.74179 | 37214 ft | 457 kts | 18° |
| 2026-04-26 18:28 | 47.60858 | 15.77737 | 37221 ft | 459 kts | 18° |
| 2026-04-26 18:28 | 47.66749 | 15.81376 | 37220 ft | 458 kts | 18° |
| 2026-04-26 18:29 | 47.72640 | 15.85023 | 37219 ft | 459 kts | 18° |
| 2026-04-26 18:29 | 47.78540 | 15.88686 | 37244 ft | 460 kts | 18° |
| 2026-04-26 18:30 | 47.84392 | 15.92328 | 37235 ft | 459 kts | 18° |
| 2026-04-26 18:30 | 47.90283 | 15.96002 | 37236 ft | 459 kts | 18° |
| 2026-04-26 18:31 | 47.96175 | 15.99687 | 37249 ft | 459 kts | 18° |
| 2026-04-26 18:31 | 48.02074 | 16.03384 | 37236 ft | 461 kts | 18° |
| 2026-04-26 18:32 | 48.07994 | 16.07105 | 37228 ft | 461 kts | 18° |
| 2026-04-26 18:32 | 48.13909 | 16.10831 | 37234 ft | 461 kts | 18° |
| 2026-04-26 18:33 | 48.19827 | 16.14568 | 37246 ft | 461 kts | 18° |
| 2026-04-26 18:33 | 48.25733 | 16.18309 | 37248 ft | 461 kts | 18° |
| 2026-04-26 18:34 | 48.31640 | 16.22058 | 37232 ft | 460 kts | 18° |
| 2026-04-26 18:34 | 48.37540 | 16.25813 | 37235 ft | 461 kts | 18° |
| 2026-04-26 18:35 | 48.43437 | 16.29575 | 37238 ft | 460 kts | 18° |
| 2026-04-26 18:35 | 48.49329 | 16.33344 | 37234 ft | 460 kts | 18° |
| 2026-04-26 18:36 | 48.55220 | 16.37121 | 37237 ft | 460 kts | 18° |
| 2026-04-26 18:36 | 48.61110 | 16.40907 | 37247 ft | 460 kts | 18° |
| 2026-04-26 18:37 | 48.66982 | 16.44692 | 37244 ft | 459 kts | 18° |
| 2026-04-26 18:37 | 48.72855 | 16.48487 | 37242 ft | 459 kts | 18° |
| 2026-04-26 18:38 | 48.78727 | 16.52291 | 37264 ft | 459 kts | 18° |
| 2026-04-26 18:38 | 48.84601 | 16.56106 | 37250 ft | 459 kts | 18° |
| 2026-04-26 18:39 | 48.90472 | 16.59929 | 37243 ft | 459 kts | 18° |
| 2026-04-26 18:39 | 48.96343 | 16.63761 | 37247 ft | 459 kts | 18° |
| 2026-04-26 18:40 | 49.02212 | 16.67602 | 37244 ft | 459 kts | 18° |
| 2026-04-26 18:40 | 49.08071 | 16.71446 | 37240 ft | 459 kts | 18° |
| 2026-04-26 18:41 | 49.13933 | 16.75302 | 37241 ft | 459 kts | 18° |
| 2026-04-26 18:41 | 49.19791 | 16.79166 | 37261 ft | 458 kts | 18° |
| 2026-04-26 18:42 | 49.25633 | 16.83029 | 37250 ft | 457 kts | 18° |
| 2026-04-26 18:42 | 49.31435 | 16.86876 | 37256 ft | 457 kts | 18° |
| 2026-04-26 18:43 | 49.37202 | 16.90709 | 37264 ft | 457 kts | 18° |
| 2026-04-26 18:43 | 49.43031 | 16.94593 | 37276 ft | 456 kts | 18° |
| 2026-04-26 18:44 | 49.48844 | 16.98476 | 37263 ft | 455 kts | 18° |
| 2026-04-26 18:44 | 49.54652 | 17.02367 | 37259 ft | 455 kts | 18° |
| 2026-04-26 18:45 | 49.60462 | 17.06270 | 37263 ft | 455 kts | 18° |
| 2026-04-26 18:45 | 49.66258 | 17.10172 | 37262 ft | 454 kts | 18° |
| 2026-04-26 18:46 | 49.72038 | 17.14074 | 37272 ft | 454 kts | 18° |
| 2026-04-26 18:46 | 49.77820 | 17.17988 | 37276 ft | 454 kts | 18° |
| 2026-04-26 18:47 | 49.83600 | 17.21910 | 37279 ft | 453 kts | 18° |
| 2026-04-26 18:47 | 49.89381 | 17.25844 | 37278 ft | 453 kts | 18° |
| 2026-04-26 18:48 | 49.95154 | 17.29782 | 37280 ft | 453 kts | 18° |
| 2026-04-26 18:48 | 50.00930 | 17.33733 | 37283 ft | 454 kts | 18° |
| 2026-04-26 18:49 | 50.06698 | 17.37689 | 37289 ft | 452 kts | 18° |
| 2026-04-26 18:49 | 50.12436 | 17.41635 | 37289 ft | 451 kts | 18° |
| 2026-04-26 18:50 | 50.18131 | 17.45561 | 37288 ft | 450 kts | 18° |
| 2026-04-26 18:50 | 50.23870 | 17.49507 | 37277 ft | 449 kts | 16° |
| 2026-04-26 18:51 | 50.29827 | 17.51618 | 37255 ft | 433 kts | 355° |
| 2026-04-26 18:51 | 50.32743 | 17.51009 | 37305 ft | 418 kts | 341° |
| 2026-04-26 18:51 | 50.35596 | 17.50022 | 37253 ft | 426 kts | 348° |
| 2026-04-26 18:52 | 50.38533 | 17.49557 | 37373 ft | 422 kts | 348° |
| 2026-04-26 18:52 | 50.41461 | 17.48993 | 37258 ft | 423 kts | 348° |
| 2026-04-26 18:52 | 50.44364 | 17.48414 | 36885 ft | 421 kts | 348° |
| 2026-04-26 18:52 | 50.47278 | 17.47836 | 36536 ft | 423 kts | 348° |
| 2026-04-26 18:53 | 50.50179 | 17.47260 | 36138 ft | 417 kts | 348° |
| 2026-04-26 18:53 | 50.53046 | 17.46690 | 35604 ft | 414 kts | 347° |
| 2026-04-26 18:53 | 50.55895 | 17.46124 | 35038 ft | 412 kts | 347° |
| 2026-04-26 18:53 | 50.58725 | 17.45561 | 34521 ft | 408 kts | 348° |
| 2026-04-26 18:54 | 50.61530 | 17.45001 | 34008 ft | 405 kts | 347° |
| 2026-04-26 18:54 | 50.64314 | 17.44444 | 33471 ft | 401 kts | 347° |
| 2026-04-26 18:54 | 50.67068 | 17.43892 | 32985 ft | 397 kts | 347° |
| 2026-04-26 18:54 | 50.69789 | 17.43346 | 32532 ft | 392 kts | 347° |
| 2026-04-26 18:55 | 50.72483 | 17.42805 | 32073 ft | 388 kts | 347° |
| 2026-04-26 18:55 | 50.75133 | 17.42274 | 31621 ft | 378 kts | 347° |
| 2026-04-26 18:55 | 50.77702 | 17.41758 | 31182 ft | 366 kts | 346° |
| 2026-04-26 18:55 | 50.80187 | 17.41255 | 30778 ft | 354 kts | 346° |
| 2026-04-26 18:56 | 50.82604 | 17.40764 | 30408 ft | 348 kts | 346° |
| 2026-04-26 18:56 | 50.84993 | 17.40279 | 29951 ft | 345 kts | 346° |
| 2026-04-26 18:56 | 50.87365 | 17.39799 | 29542 ft | 341 kts | 346° |
| 2026-04-26 18:56 | 50.89703 | 17.39326 | 29170 ft | 337 kts | 346° |
| 2026-04-26 18:57 | 50.92016 | 17.38858 | 28803 ft | 333 kts | 346° |
| 2026-04-26 18:57 | 50.92791 | 17.38701 | 28678 ft | 331 kts | 346° |
| 2026-04-26 18:57 | 50.96553 | 17.37938 | 28087 ft | 325 kts | 346° |
| 2026-04-26 18:57 | 50.98783 | 17.37485 | 27767 ft | 321 kts | 346° |
| 2026-04-26 18:58 | 51.00986 | 17.37038 | 27411 ft | 318 kts | 346° |
| 2026-04-26 18:58 | 51.03169 | 17.36594 | 27066 ft | 315 kts | 346° |
| 2026-04-26 18:58 | 51.05369 | 17.36148 | 26727 ft | 321 kts | 346° |
| 2026-04-26 18:58 | 51.07599 | 17.35695 | 26380 ft | 325 kts | 346° |
| 2026-04-26 18:59 | 51.09837 | 17.35240 | 26046 ft | 324 kts | 346° |
| 2026-04-26 18:59 | 51.11322 | 17.34938 | 25817 ft | 324 kts | 346° |
| 2026-04-26 18:59 | 51.13549 | 17.34484 | 25482 ft | 322 kts | 346° |
| 2026-04-26 18:59 | 51.15768 | 17.34031 | 25143 ft | 321 kts | 346° |
| 2026-04-26 19:00 | 51.17977 | 17.33579 | 24809 ft | 320 kts | 346° |
| 2026-04-26 19:00 | 51.20183 | 17.33128 | 24487 ft | 319 kts | 346° |
| 2026-04-26 19:00 | 51.22382 | 17.32678 | 24164 ft | 318 kts | 346° |
| 2026-04-26 19:00 | 51.24570 | 17.32230 | 23855 ft | 316 kts | 346° |
| 2026-04-26 19:01 | 51.26745 | 17.31784 | 23457 ft | 314 kts | 346° |
| 2026-04-26 19:01 | 51.28901 | 17.31341 | 23110 ft | 310 kts | 346° |
| 2026-04-26 19:01 | 51.31031 | 17.30903 | 22785 ft | 306 kts | 346° |
| 2026-04-26 19:01 | 51.33129 | 17.30471 | 22473 ft | 302 kts | 346° |
| 2026-04-26 19:02 | 51.35198 | 17.30045 | 22167 ft | 298 kts | 346° |
| 2026-04-26 19:02 | 51.37239 | 17.29624 | 21868 ft | 294 kts | 346° |
| 2026-04-26 19:02 | 51.39256 | 17.29207 | 21565 ft | 290 kts | 346° |
| 2026-04-26 19:02 | 51.40577 | 17.28934 | 21369 ft | 287 kts | 346° |
| 2026-04-26 19:03 | 51.43213 | 17.28389 | 20979 ft | 287 kts | 347° |
| 2026-04-26 19:03 | 51.45211 | 17.27976 | 20611 ft | 292 kts | 347° |
| 2026-04-26 19:03 | 51.47230 | 17.27559 | 20246 ft | 294 kts | 347° |
| 2026-04-26 19:03 | 51.49258 | 17.27139 | 19902 ft | 294 kts | 347° |
| 2026-04-26 19:04 | 51.51287 | 17.26719 | 19534 ft | 294 kts | 347° |
| 2026-04-26 19:04 | 51.53316 | 17.26298 | 19178 ft | 294 kts | 348° |
| 2026-04-26 19:04 | 51.55343 | 17.25877 | 18808 ft | 293 kts | 348° |
| 2026-04-26 19:04 | 51.57362 | 17.25457 | 18440 ft | 292 kts | 348° |
| 2026-04-26 19:05 | 51.61280 | 17.24641 | 17629 ft | 275 kts | 348° |
| 2026-04-26 19:05 | 51.63146 | 17.24251 | 17214 ft | 267 kts | 348° |
| 2026-04-26 19:05 | 51.64961 | 17.23872 | 16822 ft | 259 kts | 348° |
| 2026-04-26 19:06 | 51.66725 | 17.23503 | 16424 ft | 252 kts | 348° |
| 2026-04-26 19:06 | 51.68442 | 17.23144 | 16037 ft | 245 kts | 348° |
| 2026-04-26 19:06 | 51.70114 | 17.22794 | 15647 ft | 239 kts | 348° |
| 2026-04-26 19:06 | 51.71750 | 17.22452 | 15247 ft | 235 kts | 348° |
| 2026-04-26 19:07 | 51.73360 | 17.22114 | 14873 ft | 232 kts | 348° |
| 2026-04-26 19:07 | 51.74951 | 17.21781 | 14530 ft | 229 kts | 348° |
| 2026-04-26 19:07 | 51.76537 | 17.21449 | 14153 ft | 231 kts | 348° |
| 2026-04-26 19:07 | 51.78140 | 17.21112 | 13739 ft | 233 kts | 348° |
| 2026-04-26 19:08 | 51.79756 | 17.20773 | 13335 ft | 235 kts | 348° |
| 2026-04-26 19:08 | 51.81388 | 17.20430 | 12924 ft | 238 kts | 349° |
| 2026-04-26 19:08 | 51.83036 | 17.20083 | 12519 ft | 240 kts | 349° |
| 2026-04-26 19:08 | 51.84699 | 17.19734 | 12106 ft | 242 kts | 349° |
| 2026-04-26 19:09 | 51.86398 | 17.19704 | 11692 ft | 250 kts | 6° |
| 2026-04-26 19:09 | 51.88080 | 17.20507 | 11286 ft | 250 kts | 12° |
| 2026-04-26 19:09 | 51.89743 | 17.21175 | 10873 ft | 244 kts | 8° |
| 2026-04-26 19:09 | 51.91379 | 17.21789 | 10575 ft | 235 kts | 8° |
| 2026-04-26 19:10 | 51.92928 | 17.22389 | 10487 ft | 226 kts | 8° |
| 2026-04-26 19:10 | 51.94451 | 17.22990 | 10368 ft | 225 kts | 9° |
| 2026-04-26 19:10 | 51.95973 | 17.23598 | 10161 ft | 225 kts | 9° |
| 2026-04-26 19:10 | 51.97491 | 17.24211 | 9948 ft | 224 kts | 9° |
| 2026-04-26 19:11 | 51.99003 | 17.24823 | 9760 ft | 224 kts | 9° |
| 2026-04-26 19:11 | 52.00511 | 17.25438 | 9548 ft | 223 kts | 9° |
| 2026-04-26 19:11 | 52.01995 | 17.26043 | 9349 ft | 223 kts | 9° |
| 2026-04-26 19:11 | 52.03494 | 17.26657 | 9146 ft | 222 kts | 9° |
| 2026-04-26 19:12 | 52.04990 | 17.27270 | 8945 ft | 221 kts | 10° |
| 2026-04-26 19:12 | 52.06481 | 17.27881 | 8749 ft | 221 kts | 10° |
| 2026-04-26 19:12 | 52.07992 | 17.28500 | 8551 ft | 221 kts | 10° |
| 2026-04-26 19:12 | 52.09463 | 17.29104 | 8352 ft | 221 kts | 10° |
| 2026-04-26 19:13 | 52.10949 | 17.29714 | 8216 ft | 220 kts | 10° |
| 2026-04-26 19:13 | 52.12415 | 17.30317 | 8032 ft | 215 kts | 10° |
| 2026-04-26 19:13 | 52.13851 | 17.30908 | 7820 ft | 210 kts | 11° |
| 2026-04-26 19:13 | 52.15251 | 17.31485 | 7621 ft | 205 kts | 11° |
| 2026-04-26 19:14 | 52.16623 | 17.32050 | 7412 ft | 201 kts | 11° |
| 2026-04-26 19:14 | 52.17967 | 17.32603 | 7210 ft | 199 kts | 11° |
| 2026-04-26 19:14 | 52.19310 | 17.33157 | 7026 ft | 199 kts | 11° |
| 2026-04-26 19:14 | 52.20217 | 17.33531 | 6925 ft | 198 kts | 11° |
| 2026-04-26 19:15 | 52.21984 | 17.34259 | 6734 ft | 198 kts | 11° |
| 2026-04-26 19:15 | 52.23319 | 17.34811 | 6592 ft | 198 kts | 11° |
| 2026-04-26 19:15 | 52.24646 | 17.35359 | 6503 ft | 194 kts | 11° |
| 2026-04-26 19:15 | 52.25913 | 17.35883 | 6355 ft | 183 kts | 11° |
| 2026-04-26 19:16 | 52.27124 | 17.36383 | 6180 ft | 177 kts | 11° |
| 2026-04-26 19:16 | 52.28312 | 17.36875 | 6023 ft | 176 kts | 11° |
| 2026-04-26 19:16 | 52.29499 | 17.37331 | 5875 ft | 174 kts | 4° |
| 2026-04-26 19:16 | 52.30646 | 17.36960 | 5598 ft | 170 kts | 326° |
| 2026-04-26 19:17 | 52.31387 | 17.35515 | 5391 ft | 168 kts | 295° |
| 2026-04-26 19:17 | 52.31856 | 17.33748 | 5320 ft | 170 kts | 295° |
| 2026-04-26 19:17 | 52.32327 | 17.31971 | 5211 ft | 170 kts | 294° |
| 2026-04-26 19:17 | 52.32764 | 17.30175 | 5081 ft | 170 kts | 292° |
| 2026-04-26 19:18 | 52.33173 | 17.28365 | 4996 ft | 170 kts | 291° |
| 2026-04-26 19:18 | 52.33563 | 17.26542 | 4987 ft | 170 kts | 290° |
| 2026-04-26 19:18 | 52.33941 | 17.24711 | 4996 ft | 170 kts | 290° |
| 2026-04-26 19:18 | 52.34313 | 17.22870 | 5000 ft | 170 kts | 290° |
| 2026-04-26 19:19 | 52.34679 | 17.21029 | 4986 ft | 171 kts | 289° |
| 2026-04-26 19:19 | 52.35045 | 17.19170 | 4748 ft | 171 kts | 289° |
| 2026-04-26 19:19 | 52.35408 | 17.17317 | 4523 ft | 171 kts | 289° |
| 2026-04-26 19:19 | 52.35768 | 17.15466 | 4311 ft | 171 kts | 290° |
| 2026-04-26 19:20 | 52.36126 | 17.13618 | 4079 ft | 170 kts | 290° |
| 2026-04-26 19:20 | 52.36364 | 17.12393 | 3935 ft | 170 kts | 290° |
| 2026-04-26 19:20 | 52.36841 | 17.09923 | 3628 ft | 170 kts | 290° |
| 2026-04-26 19:20 | 52.37196 | 17.08082 | 3391 ft | 170 kts | 290° |
| 2026-04-26 19:21 | 52.37553 | 17.06238 | 3166 ft | 170 kts | 290° |
| 2026-04-26 19:21 | 52.37907 | 17.04399 | 2932 ft | 169 kts | 290° |
| 2026-04-26 19:21 | 52.38258 | 17.02579 | 2737 ft | 165 kts | 290° |
| 2026-04-26 19:21 | 52.38596 | 17.00822 | 2490 ft | 159 kts | 291° |
| 2026-04-26 19:22 | 52.38926 | 16.99117 | 2255 ft | 155 kts | 291° |
| 2026-04-26 19:22 | 52.39243 | 16.97473 | 2087 ft | 148 kts | 291° |
| 2026-04-26 19:22 | 52.39547 | 16.95896 | 1863 ft | 143 kts | 291° |
| 2026-04-26 19:22 | 52.39845 | 16.94346 | 1652 ft | 143 kts | 291° |
| 2026-04-26 19:23 | 52.40144 | 16.92795 | 1465 ft | 143 kts | 291° |
| 2026-04-26 19:23 | 52.40442 | 16.91248 | 1259 ft | 142 kts | 291° |
| 2026-04-26 19:23 | 52.40741 | 16.89702 | 1053 ft | 143 kts | 291° |
| 2026-04-26 19:23 | 52.41041 | 16.88146 | 849 ft | 144 kts | 290° |
| 2026-04-26 19:24 | 52.41341 | 16.86581 | 649 ft | 143 kts | 288° |
| 2026-04-26 19:24 | 52.41644 | 16.85025 | 433 ft | 143 kts | 289° |
| 2026-04-26 19:24 | 52.42170 | 16.82279 | 311 ft | 77 kts | 288° |
| 2026-04-26 19:25 | 52.42272 | 16.81766 | 308 ft | 48 kts | 285° |
| 2026-04-26 19:25 | 52.42297 | 16.81556 | 311 ft | 17 kts | 276° |
| 2026-04-26 19:25 | 52.42281 | 16.81261 | 311 ft | 19 kts | 258° |
| 2026-04-26 19:25 | 52.42271 | 16.81192 | 312 ft | 1 kts | 256° |